Aviation Digital Data Service (ADDS)

Output produced by METARs form (0431 UTC 22 September 2017)
found at http://www.aviationweather.gov/adds/metars/
 
TAF MSLP 220328Z 2206/2306 04004KT 9999 RA FEW023 SCT070 TX32/2219Z TN23/2211Z 
     FM221500 12003KT 9999 SCT023 
     FM221800 21008KT 8000 TSRA BKN023 FEW037CB 
     FM230000 34004KT 9999 SCT027 FEW037CB BKN060
       
TAF MSSS 220328Z 2206/2306 34006KT 8000 RA TX29/2218Z TN21/2212Z 
     TEMPO 2211/2214 2000 BR SCT017 
     FM221400 15004KT 9999 SCT023 
     TEMPO 2220/2224 18006KT 7000 TSRA BKN027 SCT037CB